Time;durP1;ratioP1;P1;durP2;ratioP2;P2;SDS_P1;SDS_P2;PMS_P1;PMS_P2;Temp;Humidity;BMP_temperature;BMP_pressure;BME280_temperature;BME280_humidity;BME280_pressure;Samples;Min_cycle;Max_cycle;Signal;HPM_P1;HPM_P2
2022/01/02 00:01:09;;;;;;;10.77;6.20;;;11.00;99.90;;;;;;5027933;28;20072;-81
2022/01/02 00:03:39;;;;;;;9.45;5.90;;;11.00;99.90;;;;;;5008829;28;20041;-79
2022/01/02 00:06:06;;;;;;;9.27;6.47;;;11.00;99.90;;;;;;5004303;28;20048;-80
2022/01/02 00:08:40;;;;;;;10.02;6.13;;;11.00;99.90;;;;;;5001895;28;20049;-81
2022/01/02 00:11:08;;;;;;;8.20;6.03;;;10.90;99.90;;;;;;5023403;28;20053;-80
2022/01/02 00:13:36;;;;;;;11.38;6.25;;;10.90;99.90;;;;;;5022304;28;20044;-81
2022/01/02 00:16:07;;;;;;;11.40;7.13;;;10.90;99.90;;;;;;4998561;28;20449;-80
2022/01/02 00:18:36;;;;;;;9.48;6.05;;;10.90;99.90;;;;;;5002700;28;20045;-81
2022/01/02 00:21:06;;;;;;;10.70;7.00;;;10.90;99.90;;;;;;5004615;28;20044;-80
2022/01/02 00:23:41;;;;;;;12.45;6.78;;;10.80;99.90;;;;;;5010908;28;20060;-81
2022/01/02 00:26:15;;;;;;;11.05;7.05;;;10.80;99.90;;;;;;5010080;28;20056;-80
2022/01/02 00:28:42;;;;;;;12.45;6.95;;;10.80;99.90;;;;;;5022686;28;20044;-81
2022/01/02 00:31:08;;;;;;;12.48;7.15;;;10.80;99.90;;;;;;5014410;28;20044;-80
2022/01/02 00:33:36;;;;;;;13.35;7.45;;;10.80;99.90;;;;;;5008660;28;20064;-80
2022/01/02 00:36:04;;;;;;;13.05;7.20;;;10.70;99.90;;;;;;5017832;28;20065;-80
2022/01/02 00:38:30;;;;;;;10.95;6.45;;;10.70;99.90;;;;;;4996669;28;20033;-81
2022/01/02 00:40:57;;;;;;;13.02;6.90;;;10.70;99.90;;;;;;4998519;28;20036;-81
2022/01/02 00:43:46;;;;;;;13.48;6.93;;;10.70;99.90;;;;;;5017682;28;20114;-80
2022/01/02 00:46:14;;;;;;;9.32;6.15;;;10.70;99.90;;;;;;5015543;28;20047;-81
2022/01/02 00:48:44;;;;;;;14.55;6.72;;;10.70;99.90;;;;;;5021544;28;20638;-80
2022/01/02 00:51:18;;;;;;;11.40;6.47;;;10.70;99.90;;;;;;5003344;28;20091;-81
2022/01/02 00:53:48;;;;;;;13.52;6.90;;;10.70;99.90;;;;;;5021216;28;20076;-81
2022/01/02 00:56:18;;;;;;;15.27;7.20;;;10.70;99.90;;;;;;5020916;28;20045;-80
2022/01/02 00:58:53;;;;;;;13.45;6.90;;;10.70;99.90;;;;;;5022679;28;20041;-81
2022/01/02 01:01:27;;;;;;;12.48;7.05;;;10.70;99.90;;;;;;5006806;28;20048;-81
2022/01/02 01:03:54;;;;;;;12.35;5.68;;;10.70;99.90;;;;;;5033713;28;20041;-80
2022/01/02 01:06:25;;;;;;;13.88;7.10;;;10.70;99.90;;;;;;5009701;28;20033;-81
2022/01/02 01:08:57;;;;;;;12.70;7.68;;;10.70;99.90;;;;;;5010975;28;20045;-80
2022/01/02 01:11:28;;;;;;;12.88;7.90;;;10.70;99.90;;;;;;4997445;28;20045;-80
2022/01/02 01:13:55;;;;;;;11.30;6.45;;;10.70;99.90;;;;;;5005140;28;20678;-80
2022/01/02 01:16:21;;;;;;;12.50;7.10;;;10.60;99.90;;;;;;5026323;28;20124;-80
2022/01/02 01:18:48;;;;;;;10.98;6.82;;;10.60;99.90;;;;;;5009684;28;20048;-80
2022/01/02 01:21:14;;;;;;;13.55;6.82;;;10.60;99.90;;;;;;5019845;28;20048;-80
2022/01/02 01:23:41;;;;;;;12.07;7.25;;;10.60;99.90;;;;;;5012999;28;20068;-80
2022/01/02 01:26:09;;;;;;;14.77;7.43;;;10.60;99.90;;;;;;5007833;28;20041;-80
2022/01/02 01:28:35;;;;;;;10.50;6.88;;;10.60;99.90;;;;;;5014804;28;20033;-80
2022/01/02 01:31:01;;;;;;;10.60;6.47;;;10.60;99.90;;;;;;4997135;28;20091;-80
2022/01/02 01:33:26;;;;;;;16.38;7.05;;;10.60;99.90;;;;;;5007112;28;20033;-81
2022/01/02 01:35:52;;;;;;;15.10;7.70;;;10.60;99.90;;;;;;4995972;28;20112;-80
2022/01/02 01:38:18;;;;;;;16.05;6.57;;;10.60;99.90;;;;;;4997878;28;20429;-80
2022/01/02 01:41:03;;;;;;;11.70;6.82;;;10.60;99.90;;;;;;4995536;28;20445;-80
2022/01/02 01:43:37;;;;;;;14.15;7.50;;;10.60;99.90;;;;;;5022535;28;20422;-80
2022/01/02 01:46:04;;;;;;;14.70;7.20;;;10.60;99.90;;;;;;5060973;28;20045;-80
2022/01/02 01:48:30;;;;;;;13.40;7.22;;;10.60;99.90;;;;;;5009106;28;20055;-81
2022/01/02 01:50:56;;;;;;;12.40;7.05;;;10.60;99.90;;;;;;5022418;28;20357;-80
2022/01/02 01:53:22;;;;;;;13.40;7.25;;;10.60;99.90;;;;;;4995605;28;20497;-81
2022/01/02 01:55:49;;;;;;;12.90;7.50;;;10.60;99.90;;;;;;5014295;28;20030;-80
2022/01/02 01:58:15;;;;;;;11.10;7.10;;;10.60;99.90;;;;;;5016533;28;20056;-81
2022/01/02 02:00:42;;;;;;;13.88;7.35;;;10.50;99.90;;;;;;5008528;28;20041;-81
2022/01/02 02:03:07;;;;;;;11.13;6.75;;;10.60;99.90;;;;;;5004056;28;20040;-81
2022/01/02 02:05:33;;;;;;;13.20;6.75;;;10.60;99.90;;;;;;4997532;28;20037;-81
2022/01/02 02:08:00;;;;;;;12.05;7.43;;;10.50;99.90;;;;;;5008285;28;20472;-81
2022/01/02 02:12:54;;;;;;;11.52;7.38;;;10.50;99.90;;;;;;5020747;28;20129;-81
2022/01/02 02:15:22;;;;;;;18.30;7.22;;;10.50;99.90;;;;;;5007771;28;20032;-80
2022/01/02 02:17:49;;;;;;;13.48;7.57;;;10.60;99.90;;;;;;4992567;28;20053;-81
2022/01/02 02:20:21;;;;;;;11.88;7.10;;;10.60;99.90;;;;;;5009714;28;20053;-81
2022/01/02 02:22:52;;;;;;;11.32;7.45;;;10.60;99.90;;;;;;5006916;28;20049;-81
2022/01/02 02:25:20;;;;;;;15.07;7.47;;;10.60;99.90;;;;;;5011227;28;20457;-81
2022/01/02 02:28:00;;;;;;;12.52;7.30;;;10.60;99.90;;;;;;5022898;28;20116;-81
2022/01/02 02:30:29;;;;;;;15.77;8.07;;;10.60;99.90;;;;;;5016607;28;20033;-81
2022/01/02 02:32:57;;;;;;;14.55;7.57;;;10.60;99.90;;;;;;5018710;28;20509;-81
2022/01/02 02:35:23;;;;;;;16.50;7.97;;;10.60;99.90;;;;;;4997416;28;20095;-81
2022/01/02 02:37:49;;;;;;;15.82;7.68;;;10.60;99.90;;;;;;4997856;28;20045;-81
2022/01/02 02:40:17;;;;;;;13.50;7.35;;;10.60;99.90;;;;;;5001875;28;20482;-81
2022/01/02 02:51:12;;;;;;;14.30;8.68;;;10.60;99.90;;;;;;5024198;28;20044;-81
2022/01/02 02:53:42;;;;;;;11.38;7.22;;;10.60;99.90;;;;;;5023726;28;20124;-81
2022/01/02 02:59:04;;;;;;;14.95;7.47;;;10.60;99.90;;;;;;5013712;28;20037;-80
2022/01/02 03:01:30;;;;;;;13.88;7.88;;;10.60;99.90;;;;;;5013382;28;20876;-80
2022/01/02 03:03:56;;;;;;;16.00;7.05;;;10.60;99.90;;;;;;5005095;28;20123;-80
2022/01/02 03:06:22;;;;;;;11.95;7.18;;;10.60;99.90;;;;;;5003769;28;20045;-80
2022/01/02 03:08:49;;;;;;;16.38;7.60;;;10.60;99.90;;;;;;4997925;28;20045;-81
2022/01/02 03:11:19;;;;;;;20.42;8.35;;;10.60;99.90;;;;;;5012864;28;20598;-80
2022/01/02 03:13:46;;;;;;;16.45;7.78;;;10.60;99.90;;;;;;5010355;28;20655;-80
2022/01/02 03:16:12;;;;;;;16.20;7.75;;;10.50;99.90;;;;;;5007299;28;20477;-80
2022/01/02 03:18:39;;;;;;;15.25;7.55;;;10.50;99.90;;;;;;5011098;28;20044;-80
2022/01/02 03:21:05;;;;;;;12.80;7.45;;;10.50;99.90;;;;;;5015209;28;20128;-81
2022/01/02 03:23:31;;;;;;;15.35;7.43;;;10.50;99.90;;;;;;5023632;28;20048;-80
2022/01/02 03:25:57;;;;;;;16.92;7.35;;;10.50;99.90;;;;;;4999775;28;20090;-80
2022/01/02 03:28:24;;;;;;;16.92;7.85;;;10.50;99.90;;;;;;4996075;28;20468;-81
2022/01/02 03:30:49;;;;;;;16.63;7.78;;;10.40;99.90;;;;;;5003953;28;20037;-81
2022/01/02 03:33:15;;;;;;;13.80;7.63;;;10.40;99.90;;;;;;5020970;28;20091;-81
2022/01/02 03:35:41;;;;;;;19.80;7.25;;;10.50;99.90;;;;;;5006793;28;20025;-80
2022/01/02 03:38:08;;;;;;;17.27;7.60;;;10.50;99.90;;;;;;5007753;28;20445;-80
2022/01/02 03:40:33;;;;;;;11.20;6.97;;;10.60;99.90;;;;;;5008279;28;20041;-81
2022/01/02 03:42:59;;;;;;;14.70;7.55;;;10.60;99.90;;;;;;5010196;28;20041;-80
2022/01/02 03:45:25;;;;;;;19.42;7.68;;;10.60;99.90;;;;;;4998580;28;20041;-80
2022/01/02 03:47:51;;;;;;;16.58;7.28;;;10.60;99.90;;;;;;5012983;28;20128;-80
2022/01/02 03:50:17;;;;;;;13.77;6.63;;;10.60;99.90;;;;;;4996552;28;20044;-80
2022/01/02 03:52:43;;;;;;;11.70;6.32;;;10.60;99.90;;;;;;5024726;28;20044;-80
2022/01/02 03:55:10;;;;;;;14.88;6.70;;;10.70;99.90;;;;;;5028302;28;20033;-80
2022/01/02 03:57:36;;;;;;;18.35;7.30;;;10.70;99.90;;;;;;4997691;28;20033;-80
2022/01/02 04:00:05;;;;;;;15.65;7.30;;;10.70;99.90;;;;;;5018070;28;20044;-80
2022/01/02 04:02:31;;;;;;;13.85;7.28;;;10.60;99.90;;;;;;5001878;28;20052;-80
2022/01/02 04:04:56;;;;;;;14.82;7.30;;;10.60;99.90;;;;;;5000295;28;20037;-80
2022/01/02 04:07:22;;;;;;;14.07;6.90;;;10.70;99.90;;;;;;5003110;28;20037;-80
2022/01/02 04:09:50;;;;;;;13.27;6.57;;;10.70;99.90;;;;;;5010270;28;20045;-80
2022/01/02 04:12:16;;;;;;;14.32;7.03;;;10.70;99.90;;;;;;5011452;28;20037;-80
2022/01/02 04:14:42;;;;;;;13.82;6.78;;;10.70;99.90;;;;;;4983995;28;20056;-80
2022/01/02 04:17:08;;;;;;;12.77;7.03;;;10.70;99.90;;;;;;4979715;28;20479;-80
2022/01/02 04:19:34;;;;;;;16.05;7.32;;;10.70;99.90;;;;;;5018024;28;20045;-80
2022/01/02 04:21:59;;;;;;;14.38;6.72;;;10.70;99.90;;;;;;4995585;28;20621;-80
2022/01/02 04:24:25;;;;;;;14.10;6.60;;;10.60;99.90;;;;;;5007551;28;20041;-80
2022/01/02 04:26:51;;;;;;;14.80;7.38;;;10.80;99.90;;;;;;4997260;28;20091;-80
2022/01/02 04:29:17;;;;;;;18.08;7.15;;;10.60;99.90;;;;;;5024492;28;20124;-80
2022/01/02 04:31:42;;;;;;;16.33;7.80;;;10.60;99.90;;;;;;4986823;28;20061;-81
2022/01/02 04:34:08;;;;;;;12.63;7.15;;;10.60;99.90;;;;;;5040433;28;20055;-81
2022/01/02 04:36:34;;;;;;;15.18;7.05;;;10.60;99.90;;;;;;4981266;28;20041;-81
2022/01/02 04:38:59;;;;;;;16.13;6.65;;;10.60;99.90;;;;;;5001214;28;20555;-81
2022/01/02 04:41:25;;;;;;;13.63;7.38;;;10.60;99.90;;;;;;5031948;28;20040;-81
2022/01/02 04:43:51;;;;;;;12.60;6.65;;;10.60;99.90;;;;;;4997310;28;20110;-81
2022/01/02 04:46:16;;;;;;;12.95;6.90;;;10.60;99.90;;;;;;4994500;28;20080;-81
2022/01/02 04:48:42;;;;;;;12.55;6.32;;;10.70;99.90;;;;;;4991537;28;20036;-81
2022/01/02 04:51:08;;;;;;;12.93;6.97;;;10.60;99.90;;;;;;5008884;28;20037;-80
2022/01/02 04:53:36;;;;;;;18.63;7.70;;;10.70;99.90;;;;;;4995540;28;20029;-81
2022/01/02 04:56:03;;;;;;;17.67;7.63;;;10.70;99.90;;;;;;4993963;28;20505;-81
2022/01/02 04:58:29;;;;;;;13.30;6.38;;;10.70;99.90;;;;;;4999261;28;20083;-81
2022/01/02 05:00:55;;;;;;;19.98;7.53;;;10.70;99.90;;;;;;5028290;28;20076;-81
2022/01/02 05:03:20;;;;;;;15.20;6.65;;;10.70;99.90;;;;;;5011049;28;20539;-81
2022/01/02 05:05:46;;;;;;;15.80;6.25;;;10.70;99.90;;;;;;5008254;28;20036;-81
2022/01/02 05:08:12;;;;;;;14.57;6.40;;;10.70;99.90;;;;;;5026689;28;20053;-81
2022/01/02 05:10:37;;;;;;;12.52;6.18;;;10.70;99.90;;;;;;5007327;28;20120;-81
2022/01/02 05:13:03;;;;;;;12.88;6.00;;;10.80;99.90;;;;;;5029652;28;20160;-81
2022/01/02 05:15:29;;;;;;;13.93;5.78;;;10.90;99.90;;;;;;4995234;28;20045;-80
2022/01/02 05:17:54;;;;;;;12.48;5.82;;;10.90;99.90;;;;;;4995689;28;20586;-81
2022/01/02 05:20:20;;;;;;;15.15;6.20;;;10.90;99.90;;;;;;4994744;28;20045;-81
2022/01/02 05:22:46;;;;;;;12.68;5.95;;;10.90;99.90;;;;;;4996380;28;20044;-81
2022/01/02 05:25:11;;;;;;;15.77;6.43;;;11.00;99.90;;;;;;4983127;28;20044;-81
2022/01/02 05:27:37;;;;;;;15.57;6.68;;;11.00;99.90;;;;;;4999501;28;20487;-80
2022/01/02 05:30:03;;;;;;;16.75;6.50;;;11.10;99.90;;;;;;5028557;28;20095;-80
2022/01/02 05:32:29;;;;;;;14.30;5.65;;;11.10;99.90;;;;;;5009751;28;20112;-81
2022/01/02 05:34:55;;;;;;;12.25;5.57;;;11.10;99.90;;;;;;5015667;28;20112;-79
2022/01/02 05:37:20;;;;;;;15.80;5.43;;;11.10;99.90;;;;;;5009762;28;20068;-80
2022/01/02 05:39:46;;;;;;;22.88;6.22;;;11.10;99.90;;;;;;4999203;28;20068;-81
2022/01/02 05:42:12;;;;;;;14.57;6.05;;;11.10;99.90;;;;;;4999131;28;20053;-81
2022/01/02 05:44:37;;;;;;;19.10;6.03;;;11.20;99.90;;;;;;5045979;28;20052;-81
2022/01/02 05:47:03;;;;;;;15.48;6.00;;;11.20;99.90;;;;;;5029943;28;20529;-81
2022/01/02 05:49:29;;;;;;;15.00;5.53;;;11.20;99.90;;;;;;5022412;28;20029;-81
2022/01/02 05:51:55;;;;;;;12.70;5.80;;;11.20;99.90;;;;;;5012410;28;20206;-80
2022/01/02 05:54:20;;;;;;;9.57;4.97;;;11.20;99.90;;;;;;4984038;28;20033;-80
2022/01/02 05:56:46;;;;;;;14.15;5.03;;;11.30;99.90;;;;;;5007544;28;21727;-81
2022/01/02 05:59:12;;;;;;;17.33;5.43;;;11.30;99.90;;;;;;5012572;28;20617;-80
2022/01/02 06:01:37;;;;;;;13.27;4.70;;;11.40;99.90;;;;;;4997151;28;20036;-79
2022/01/02 06:04:03;;;;;;;16.75;4.90;;;11.40;99.90;;;;;;4998322;28;20521;-80
2022/01/02 06:06:29;;;;;;;9.73;4.45;;;11.50;99.90;;;;;;4981776;28;20138;-80
2022/01/02 06:08:55;;;;;;;15.90;4.43;;;11.60;99.90;;;;;;5009548;28;20041;-80
2022/01/02 06:11:20;;;;;;;18.08;5.10;;;11.70;99.90;;;;;;5013664;28;20526;-80
2022/01/02 06:13:46;;;;;;;16.13;4.28;;;11.70;99.90;;;;;;5030064;28;20034;-80
2022/01/02 06:16:12;;;;;;;10.73;4.30;;;11.70;99.90;;;;;;5046282;28;20456;-80
2022/01/02 06:18:38;;;;;;;10.60;4.47;;;11.70;99.90;;;;;;5009958;28;20384;-80
2022/01/02 06:21:04;;;;;;;10.20;4.50;;;11.80;99.90;;;;;;4995809;28;20043;-80
2022/01/02 06:23:30;;;;;;;11.38;3.78;;;11.80;99.90;;;;;;4997416;28;20048;-80
2022/01/02 06:25:56;;;;;;;9.75;4.00;;;11.80;99.90;;;;;;5006419;28;20044;-80
2022/01/02 06:28:21;;;;;;;11.85;4.50;;;11.80;99.90;;;;;;5010785;28;20053;-80
2022/01/02 06:30:47;;;;;;;13.35;4.43;;;11.80;99.90;;;;;;4997435;28;20724;-80
2022/01/02 06:33:13;;;;;;;8.80;4.22;;;11.80;99.90;;;;;;4997336;28;20033;-80
2022/01/02 06:35:39;;;;;;;10.93;4.20;;;11.80;99.90;;;;;;5012525;28;20037;-80
2022/01/02 06:38:14;;;;;;;9.45;4.20;;;11.70;99.90;;;;;;5027155;28;20041;-80
2022/01/02 06:40:40;;;;;;;9.00;3.60;;;11.70;99.90;;;;;;5029314;28;20033;-80
2022/01/02 06:43:05;;;;;;;11.82;4.22;;;11.70;99.90;;;;;;5000316;28;20055;-80
2022/01/02 06:45:31;;;;;;;12.40;4.80;;;11.70;99.90;;;;;;5027617;28;20486;-80
2022/01/02 06:47:57;;;;;;;12.40;4.35;;;11.70;99.90;;;;;;5016379;28;20478;-80
2022/01/02 06:50:23;;;;;;;13.57;4.68;;;11.70;99.90;;;;;;4996727;28;20125;-81
2022/01/02 06:52:48;;;;;;;11.32;4.07;;;11.70;99.90;;;;;;5014861;28;20055;-81
2022/01/02 06:55:14;;;;;;;8.27;4.15;;;11.60;99.90;;;;;;4998966;28;20028;-80
2022/01/02 06:57:40;;;;;;;10.15;3.65;;;11.60;99.90;;;;;;5025990;28;20614;-80
2022/01/02 07:00:07;;;;;;;8.63;3.85;;;11.60;99.90;;;;;;4985328;28;20033;-80
2022/01/02 07:02:33;;;;;;;10.57;4.40;;;11.60;99.90;;;;;;5003120;28;20754;-80
2022/01/02 07:04:58;;;;;;;9.40;4.35;;;11.60;99.90;;;;;;4975506;28;20131;-80
2022/01/02 07:07:24;;;;;;;10.07;4.75;;;11.60;99.90;;;;;;5045703;28;20033;-81
2022/01/02 07:09:50;;;;;;;13.00;5.10;;;11.50;99.90;;;;;;4995230;28;20099;-81
2022/01/02 07:12:16;;;;;;;12.35;4.18;;;11.50;99.90;;;;;;4988673;28;20045;-81
2022/01/02 07:14:42;;;;;;;5.25;3.38;;;11.50;99.90;;;;;;4997821;28;20140;-81
2022/01/02 07:17:08;;;;;;;12.02;4.70;;;11.50;99.90;;;;;;5012463;28;20697;-80
2022/01/02 07:19:33;;;;;;;13.00;4.75;;;11.50;99.90;;;;;;5011008;28;20066;-81
2022/01/02 07:22:02;;;;;;;9.45;4.93;;;11.50;99.90;;;;;;5024010;28;20038;-81
2022/01/02 07:24:28;;;;;;;15.15;5.13;;;11.40;99.90;;;;;;5004926;28;20568;-81
2022/01/02 07:26:54;;;;;;;8.10;5.00;;;11.40;99.90;;;;;;4997170;28;20049;-81
2022/01/02 07:29:20;;;;;;;15.43;4.75;;;11.40;99.90;;;;;;5022829;28;20065;-81
2022/01/02 07:31:46;;;;;;;10.65;5.07;;;11.40;99.90;;;;;;4994509;28;20057;-81
2022/01/02 07:34:11;;;;;;;9.20;4.20;;;11.30;99.90;;;;;;4991267;28;20336;-81
2022/01/02 07:36:44;;;;;;;10.25;4.80;;;11.30;99.90;;;;;;5006765;28;20041;-81
2022/01/02 07:39:14;;;;;;;10.95;4.95;;;11.30;99.90;;;;;;5004710;28;20040;-80
2022/01/02 07:41:41;;;;;;;8.45;4.80;;;11.30;99.90;;;;;;5005046;28;20049;-81
2022/01/02 07:44:07;;;;;;;10.38;5.20;;;11.40;99.90;;;;;;4994771;28;20106;-81
2022/01/02 07:46:33;;;;;;;10.02;4.45;;;11.40;99.90;;;;;;5023283;28;20045;-80
2022/01/02 07:48:59;;;;;;;8.75;4.35;;;11.50;99.90;;;;;;5022216;28;20103;-81
2022/01/02 07:51:25;;;;;;;9.93;4.35;;;11.50;99.90;;;;;;5022499;28;20509;-81
2022/01/02 07:53:51;;;;;;;9.80;4.57;;;11.40;99.90;;;;;;5020913;28;20045;-80
2022/01/02 07:56:17;;;;;;;10.95;4.80;;;11.40;99.90;;;;;;4993110;28;20040;-80
2022/01/02 07:58:43;;;;;;;13.23;4.78;;;11.40;99.90;;;;;;5000234;28;20044;-81
2022/01/02 08:01:08;;;;;;;8.63;4.72;;;11.30;99.90;;;;;;4990894;28;20201;-81
2022/01/02 08:03:34;;;;;;;8.55;4.40;;;11.40;99.90;;;;;;5004079;28;20128;-81
2022/01/02 08:06:00;;;;;;;10.43;4.93;;;11.30;99.90;;;;;;5016483;28;20044;-81
2022/01/02 08:08:26;;;;;;;6.68;4.53;;;11.30;99.90;;;;;;5016832;28;20040;-81
2022/01/02 08:13:26;;;;;;;10.25;5.32;;;11.30;99.90;;;;;;5057198;28;20145;-92
2022/01/02 08:16:09;;;;;;;10.23;5.03;;;11.30;99.90;;;;;;5040521;28;20114;-88
2022/01/02 08:18:35;;;;;;;11.13;4.70;;;11.50;99.90;;;;;;4981253;28;20140;-87
2022/01/02 08:21:01;;;;;;;9.07;4.00;;;11.40;99.90;;;;;;5007523;28;20517;-87
2022/01/02 08:23:26;;;;;;;9.80;5.57;;;11.50;99.90;;;;;;4991031;28;20124;-86
2022/01/02 08:25:52;;;;;;;12.45;4.78;;;11.50;99.90;;;;;;5014565;28;20033;-86
2022/01/02 08:28:19;;;;;;;10.45;4.70;;;11.40;99.90;;;;;;4997269;28;20111;-86
2022/01/02 08:30:47;;;;;;;11.35;4.25;;;11.30;99.90;;;;;;4990956;28;20149;-86
2022/01/02 08:33:14;;;;;;;8.73;5.00;;;11.30;99.90;;;;;;5017526;28;20223;-86
2022/01/02 08:35:41;;;;;;;10.80;4.40;;;11.20;99.90;;;;;;5015953;28;20032;-86
2022/01/02 08:38:06;;;;;;;11.05;4.90;;;11.20;99.90;;;;;;4995446;28;20359;-86
2022/01/02 08:40:32;;;;;;;11.00;4.65;;;11.10;99.90;;;;;;5012353;28;20047;-86
2022/01/02 08:42:58;;;;;;;9.82;4.72;;;11.10;99.90;;;;;;4999031;28;20040;-86
2022/01/02 08:45:24;;;;;;;7.30;4.82;;;11.10;99.90;;;;;;5014619;28;20083;-86
2022/01/02 08:47:50;;;;;;;10.23;4.55;;;11.10;99.90;;;;;;5015005;28;20397;-87
2022/01/02 08:50:15;;;;;;;12.15;4.90;;;11.10;99.90;;;;;;4999487;28;20489;-87
2022/01/02 08:52:41;;;;;;;11.05;4.97;;;11.10;99.90;;;;;;4997768;28;20060;-87
2022/01/02 08:55:07;;;;;;;11.32;4.57;;;11.10;99.90;;;;;;4998560;28;20517;-86
2022/01/02 08:57:33;;;;;;;9.25;4.13;;;11.10;99.90;;;;;;5011905;28;20044;-87
2022/01/02 08:59:58;;;;;;;10.95;5.25;;;11.10;99.90;;;;;;5000381;28;20052;-87
2022/01/02 09:02:24;;;;;;;10.93;4.25;;;11.10;99.90;;;;;;5019683;28;20037;-86
2022/01/02 09:04:50;;;;;;;6.90;4.22;;;11.30;99.90;;;;;;5019186;28;20041;-86
2022/01/02 09:07:16;;;;;;;8.25;4.47;;;11.30;99.90;;;;;;5014313;28;20093;-87
2022/01/02 09:09:42;;;;;;;7.50;3.88;;;11.30;99.90;;;;;;5039231;28;20084;-87
2022/01/02 09:12:08;;;;;;;7.60;4.10;;;11.30;99.90;;;;;;5040791;28;20033;-87
2022/01/02 09:14:35;;;;;;;6.22;3.80;;;11.30;99.90;;;;;;5040747;28;20057;-87
2022/01/02 09:17:01;;;;;;;11.70;4.93;;;11.30;99.90;;;;;;5043334;28;20100;-87
2022/01/02 09:19:27;;;;;;;7.70;4.15;;;11.30;99.90;;;;;;5042360;28;20040;-87
2022/01/02 09:21:53;;;;;;;13.95;4.68;;;11.30;99.90;;;;;;5031333;28;20033;-87
2022/01/02 09:24:18;;;;;;;10.60;4.80;;;11.30;99.90;;;;;;5037646;28;20028;-87
2022/01/02 09:26:44;;;;;;;10.10;4.93;;;11.20;99.90;;;;;;5056611;28;20037;-87
2022/01/02 09:29:10;;;;;;;9.98;4.25;;;11.20;99.90;;;;;;5057973;28;20055;-87
2022/01/02 09:31:36;;;;;;;10.50;5.03;;;11.20;99.90;;;;;;5027371;28;20029;-87
2022/01/02 09:34:02;;;;;;;5.65;4.05;;;11.10;99.90;;;;;;5043765;28;21254;-87
2022/01/02 09:36:28;;;;;;;10.13;4.05;;;11.20;99.90;;;;;;5025231;28;20041;-87
2022/01/02 09:38:54;;;;;;;8.90;4.40;;;11.10;99.90;;;;;;5026774;28;20036;-87
2022/01/02 09:41:20;;;;;;;11.48;4.72;;;11.10;99.90;;;;;;5012169;28;20034;-87
2022/01/02 09:43:50;;;;;;;10.82;4.65;;;11.10;99.90;;;;;;5036944;28;20041;-90
2022/01/02 09:46:24;;;;;;;10.38;4.10;;;11.10;99.90;;;;;;5049088;28;20033;-87
2022/01/02 09:48:51;;;;;;;7.13;3.67;;;11.20;99.90;;;;;;5055071;28;20064;-87
2022/01/02 09:51:20;;;;;;;7.93;4.45;;;11.10;99.90;;;;;;5042617;28;20034;-87
2022/01/02 09:53:47;;;;;;;8.77;3.97;;;11.20;99.90;;;;;;5031275;28;20045;-87
2022/01/02 09:56:14;;;;;;;8.75;3.95;;;11.10;99.90;;;;;;5035920;28;20039;-87
2022/01/02 09:58:43;;;;;;;10.98;4.13;;;11.20;99.90;;;;;;5036232;28;20025;-88
2022/01/02 10:01:23;;;;;;;8.23;4.13;;;11.20;99.90;;;;;;5036145;28;20092;-88
2022/01/02 10:03:53;;;;;;;7.57;4.15;;;11.30;99.90;;;;;;5033685;28;20602;-88
2022/01/02 10:06:20;;;;;;;7.40;4.40;;;11.30;99.90;;;;;;5027483;28;20045;-88
2022/01/02 10:08:49;;;;;;;9.75;4.07;;;11.30;99.90;;;;;;5039764;28;20048;-88
2022/01/02 10:11:24;;;;;;;9.27;4.55;;;11.30;99.90;;;;;;5023046;28;20053;-89
2022/01/02 10:13:56;;;;;;;10.30;4.45;;;11.20;99.90;;;;;;5041346;28;20049;-88
2022/01/02 10:16:32;;;;;;;8.77;4.43;;;11.20;99.90;;;;;;5039473;28;20108;-89
2022/01/02 10:19:02;;;;;;;8.18;4.40;;;11.30;99.90;;;;;;5037437;28;20047;-89
2022/01/02 10:21:33;;;;;;;6.45;4.35;;;11.30;99.90;;;;;;5012013;28;20075;-88
2022/01/02 10:24:21;;;;;;;6.22;3.65;;;11.30;99.90;;;;;;5026623;28;20045;-88
2022/01/02 10:27:06;;;;;;;9.55;4.22;;;11.40;99.90;;;;;;5006545;28;20044;-88
2022/01/02 10:29:44;;;;;;;10.70;4.78;;;11.40;99.90;;;;;;5036039;28;20118;-88
2022/01/02 10:32:39;;;;;;;8.60;4.60;;;11.40;99.90;;;;;;5025307;28;20059;-89
2022/01/02 10:35:13;;;;;;;7.28;4.53;;;11.40;99.90;;;;;;5023721;28;20080;-89
2022/01/02 10:37:47;;;;;;;11.75;4.43;;;11.50;99.90;;;;;;5021115;28;20042;-88
2022/01/02 10:40:34;;;;;;;5.53;4.13;;;11.50;99.90;;;;;;5017678;28;20061;-89
2022/01/02 10:43:03;;;;;;;11.88;4.55;;;11.60;99.90;;;;;;5025823;28;20547;-90
2022/01/02 10:45:33;;;;;;;6.97;4.13;;;11.60;99.90;;;;;;5033376;28;20030;-90
2022/01/02 10:47:59;;;;;;;9.95;4.32;;;11.60;99.90;;;;;;5042909;28;20040;-88
2022/01/02 10:50:25;;;;;;;9.10;4.63;;;11.60;99.90;;;;;;5047215;28;20071;-91
2022/01/02 10:52:50;;;;;;;8.93;4.50;;;11.60;99.90;;;;;;5018472;28;20036;-88
2022/01/02 10:55:19;;;;;;;11.32;4.55;;;11.60;99.90;;;;;;5013941;28;20191;-90
2022/01/02 10:57:47;;;;;;;11.35;4.72;;;11.70;99.90;;;;;;5062447;28;20021;-89
2022/01/02 11:00:15;;;;;;;9.35;4.50;;;11.60;99.90;;;;;;5045505;28;20033;-90
2022/01/02 11:02:41;;;;;;;10.70;5.07;;;11.60;99.90;;;;;;5043747;28;20028;-87
2022/01/02 11:05:12;;;;;;;8.27;4.20;;;11.60;99.90;;;;;;5059825;28;20045;-91
2022/01/02 11:07:46;;;;;;;7.75;4.53;;;11.70;99.90;;;;;;5034908;28;20045;-93
2022/01/02 11:10:17;;;;;;;9.00;4.97;;;11.70;99.90;;;;;;5043365;28;20119;-87
2022/01/02 11:12:45;;;;;;;10.60;5.00;;;11.70;99.90;;;;;;5017687;28;20121;-88
2022/01/02 11:15:16;;;;;;;9.43;5.30;;;11.70;99.90;;;;;;5032861;28;20124;-87
2022/01/02 11:17:42;;;;;;;8.70;4.93;;;11.80;99.90;;;;;;5016930;28;20081;-86
2022/01/02 11:20:11;;;;;;;8.00;4.50;;;11.70;99.90;;;;;;5015156;28;20103;-85
2022/01/02 11:23:08;;;;;;;10.18;5.63;;;11.70;99.90;;;;;;5014308;28;20036;-85
2022/01/02 11:26:00;;;;;;;11.38;6.53;;;11.70;99.90;;;;;;5029609;28;20045;-86
2022/01/02 11:28:31;;;;;;;9.77;5.32;;;11.60;99.90;;;;;;5028785;28;20039;-85
2022/01/02 11:30:57;;;;;;;8.25;4.60;;;11.60;99.90;;;;;;5012753;28;20513;-88
2022/01/02 11:33:33;;;;;;;10.18;5.15;;;11.60;99.90;;;;;;5012356;28;20033;-85
2022/01/02 11:36:19;;;;;;;9.30;5.13;;;11.60;99.90;;;;;;5022859;28;20494;-83
2022/01/02 11:38:55;;;;;;;9.25;5.38;;;11.60;99.90;;;;;;5029354;28;20043;-83
2022/01/02 11:41:53;;;;;;;11.00;5.53;;;11.60;99.90;;;;;;5024680;28;20045;-83
2022/01/02 11:44:43;;;;;;;11.07;5.32;;;11.60;99.90;;;;;;4944596;28;20713;-84
2022/01/02 11:47:08;;;;;;;17.42;5.93;;;11.60;99.90;;;;;;5025699;28;20125;-82
2022/01/02 11:49:40;;;;;;;13.15;5.30;;;11.60;99.90;;;;;;5001234;28;20183;-84
2022/01/02 11:52:10;;;;;;;7.33;5.27;;;11.70;99.90;;;;;;5008759;28;20044;-84
2022/01/02 11:54:46;;;;;;;10.73;5.07;;;11.60;99.90;;;;;;5008820;28;20037;-86
2022/01/02 11:57:11;;;;;;;12.20;6.13;;;11.60;99.90;;;;;;4986974;28;20048;-87
2022/01/02 11:59:42;;;;;;;8.25;5.22;;;11.60;99.90;;;;;;5024839;28;20409;-86
2022/01/02 12:02:13;;;;;;;12.35;4.65;;;11.70;99.90;;;;;;5024948;28;20061;-84
2022/01/02 12:05:18;;;;;;;13.98;5.35;;;11.70;99.90;;;;;;5013216;28;20044;-85
2022/01/02 12:08:06;;;;;;;8.80;5.20;;;11.70;99.90;;;;;;5028528;28;20054;-86
2022/01/02 12:10:35;;;;;;;11.65;5.10;;;11.70;99.90;;;;;;5028006;28;20401;-84
2022/01/02 12:13:10;;;;;;;12.03;5.00;;;11.80;99.90;;;;;;5020643;28;20390;-85
2022/01/02 12:15:42;;;;;;;7.60;4.30;;;11.70;99.90;;;;;;5003858;28;20046;-84
2022/01/02 12:18:19;;;;;;;7.65;4.50;;;11.70;99.90;;;;;;5001398;28;20060;-86
2022/01/02 12:20:56;;;;;;;9.85;4.57;;;11.80;99.90;;;;;;5002179;28;20445;-84
2022/01/02 12:23:34;;;;;;;11.77;4.07;;;11.80;99.90;;;;;;5025982;28;20568;-85
2022/01/02 12:26:01;;;;;;;8.73;4.35;;;11.80;99.90;;;;;;5025480;28;20128;-85
2022/01/02 12:28:29;;;;;;;8.52;4.53;;;11.70;99.90;;;;;;4997080;28;20477;-86
2022/01/02 12:30:56;;;;;;;13.00;4.38;;;11.70;99.90;;;;;;5013096;28;20377;-84
2022/01/02 12:33:24;;;;;;;9.05;3.90;;;11.70;99.90;;;;;;5011083;28;20092;-84
2022/01/02 12:35:49;;;;;;;6.03;3.70;;;11.80;99.90;;;;;;5014372;28;20037;-88
2022/01/02 12:38:15;;;;;;;10.93;4.90;;;11.80;99.90;;;;;;5030638;28;20044;-87
2022/01/02 12:40:41;;;;;;;8.27;3.80;;;11.80;99.90;;;;;;5014337;28;20124;-86
2022/01/02 12:43:08;;;;;;;11.77;4.60;;;11.80;99.90;;;;;;5006478;28;20042;-86
2022/01/02 12:45:34;;;;;;;7.82;4.05;;;11.80;99.90;;;;;;5030498;28;20123;-87
2022/01/02 12:48:00;;;;;;;7.20;3.90;;;11.80;99.90;;;;;;5013698;28;20128;-88
2022/01/02 12:50:27;;;;;;;8.02;3.30;;;11.80;99.90;;;;;;5014095;28;20098;-82
2022/01/02 12:52:55;;;;;;;10.32;4.32;;;11.80;99.90;;;;;;5029883;28;20064;-80
2022/01/02 12:55:22;;;;;;;10.10;4.15;;;11.80;99.90;;;;;;5030428;28;20095;-79
2022/01/02 12:57:47;;;;;;;9.05;4.35;;;11.70;99.90;;;;;;5000027;28;20041;-87
2022/01/02 13:00:14;;;;;;;10.60;3.85;;;11.80;99.90;;;;;;5012049;28;20504;-85
2022/01/02 13:02:39;;;;;;;12.48;3.80;;;11.80;99.90;;;;;;4997220;28;20119;-85